Ruso, ND

3:55 AM CST on March 03, 2015 (GMT -0600)
APRSWXNET Ruso ND US | Change Station
CLOSE
Current Station
Personal Weather Station
Location: Ruso, ND
Elevation: 2200 ft
Nearby Weather Stations
Active Advisory: Wind Advisory

Elev 2200 ft 47.84 °N, 100.93 °W | Updated 24 minutes ago

Partly Cloudy
Partly Cloudy
8 °F
Feels Like -8 °F
N
13
Wind Variable Wind from NNW
Gusts 0.0 mph

Today
High -- | Low -- °F
--% Chance of Precip.
Yesterday
High -- | Low -- °F
Precip. -- in
7:20 AM 6:30 PM
Waxing Gibbous, 95% visible
Pressure 30.01 in
Visibility 5.0 miles
Clouds Clear
Windchill -8 °F
Dew Point 4 °F
Humidity 82%
Rainfall -999.00 in
Snow Depth Not available.
UV 0 out of 12
Pollen .10 out of 12
Air Quality Not available.
Flu Activity Not available.
METAR KMOT 030854Z AUTO 30026KT 5SM -SN CLR M13/M17 A2992 RMK AO2 PK WND 30035/0838 SLP162 P0000 60000 T11331172 53015

More Conditions Fewer Conditions

Pressure 30.01 in
Visibility 5.0 miles
Clouds Clear
Windchill -8 °F
Dew Point 4 °F
Humidity 82%
Rainfall -999.00 in
Snow Depth Not available.
UV 0 out of 12
Pollen .10 out of 12
Air Quality Not available.
Flu Activity Not available.
METAR KMOT 030854Z AUTO 30026KT 5SM -SN CLR M13/M17 A2992 RMK AO2 PK WND 30035/0838 SLP162 P0000 60000 T11331172 53015

More Conditions Fewer Conditions

10-Day Weather Forecast

Almanac

Astronomy

Mar. 03, 2015 Rise Set
Actual Time
Civil Twilight
Nautical Twilight
Astronomical Twilight
Moon
Length of Visible Light
Length of Day
Tomorrow will be .
, % of the Moon is Illuminated

Today's Extremes

State Highs State Lows

Community

WunderPhotos

Upload Photos

1,802,075 photos uploaded!

WunderBlogs® & News

Nearby

Air Quality

  Air Quality AQ Index Pollutant
Not available.

Snow Depth

Station Depth Elevation

Earthquake Activity

City Distance Mag. Time & Date
Minimum magnitude displayed is 2.5.

Coastal Water Temperatures

Place Temperature

Nearby Weather Stations

Wind Advisory
Statement as of 3:28 AM CST on March 03, 2015

... Wind Advisory remains in effect until 6 PM CST this evening...

* timing... through early Tuesday evening.

* Winds... northwest sustained near 30 mph. Gusts to 40 mph.

* Impacts... difficult driving conditions for high profile
vehicles. Working on elevated structures will be hazardous.